Farmington, Arkansas
Current Conditions -  °F | °C
As of 12:53 PM on Thursday 27 Nov 2014 (Local Time) from KFYV Reporting Station
Clear Clear  
Wind Chill: 41°   Ceiling: Unl
Heat Index: 41°   Visibility: 10mi
Dew Point: 26°   Wind: 0mph
Humidity: 55%   Direction: NA
Pressure: 30.49"   Gusts: NA
Location:  36.04°N, 94.25°W
Report Text: KFYV 271853Z 00000KT 10SM CLR 05/M03 A3049 RMK AO2 SLP331 T00501033
Loading
Personal Weather Stations






























Interactive Weather Map New forecast layout! Learn more

10-Day Weather Forecast

Advertisements
Track Severe Weather on mobile